Terminal Aerodrome Forecast
Issued by NWS

Home | Current Version | Previous Version | Text Only | Print | Product List | Glossary On
Versions: 1 2 3 4 5 6 7 8 9 10 11 12 13 14 15 16 17 18 19 20 21 22 23 24 25 26 27 28 29 30 31 32 33 34 35
000
FTUS44 KHGX 270231 AAB
TAFLBX
TAF AMD
KLBX 270231Z 2703/2724 13010KT P6SM BKN018 OVC030
     FM270900 16005KT 4SM BR BKN015 OVC025
      TEMPO 2710/2714 OVC010
     FM271500 17009KT P6SM FEW015 BKN025
     FM271900 18009G16KT P6SM VCSH SCT025 BKN035=

USA.gov is the U.S. government's official web portal to all federal, state and local government web resources and services.